createdAt,value
2023-03-24T00:01:29.148Z,13.39
2023-03-24T00:03:57.672Z,13.37
2023-03-24T00:06:26.921Z,13.36
2023-03-24T00:08:55.782Z,13.35
2023-03-24T00:11:25.624Z,13.34
2023-03-24T00:13:58.533Z,13.32
2023-03-24T00:16:27.049Z,13.30
2023-03-24T00:18:58.195Z,13.26
2023-03-24T00:21:26.834Z,13.22
2023-03-24T00:23:58.452Z,13.20
2023-03-24T00:26:32.661Z,13.16
2023-03-24T00:29:03.221Z,13.12
2023-03-24T00:31:32.302Z,13.10
2023-03-24T00:34:03.149Z,13.09
2023-03-24T00:36:32.262Z,13.06
2023-03-24T00:39:20.852Z,13.04
2023-03-24T00:41:50.154Z,13.01
2023-03-24T00:44:18.873Z,12.98
2023-03-24T00:47:00.407Z,12.96
2023-03-24T00:49:43.404Z,12.92
2023-03-24T00:52:50.470Z,12.90
2023-03-24T00:55:28.929Z,12.89
2023-03-24T00:58:01.209Z,12.88
2023-03-24T01:01:02.928Z,12.86
2023-03-24T01:03:43.469Z,12.81
2023-03-24T01:06:12.963Z,12.78
2023-03-24T01:08:49.867Z,12.75
2023-03-24T01:26:46.246Z,12.27
2023-03-24T01:29:14.826Z,12.24
2023-03-24T01:31:43.903Z,12.23
2023-03-24T01:34:14.782Z,12.21
2023-03-24T01:36:42.891Z,12.17
2023-03-24T01:39:11.231Z,12.14
2023-03-24T01:41:41.956Z,12.12
2023-03-24T01:44:30.091Z,12.13
2023-03-24T01:46:59.373Z,12.12
2023-03-24T01:49:55.142Z,12.13
2023-03-24T01:52:31.964Z,12.15
2023-03-24T01:55:08.055Z,12.15
2023-03-24T01:57:40.667Z,12.14
2023-03-24T02:00:18.273Z,12.10
2023-03-24T02:03:21.528Z,12.11
2023-03-24T02:06:00.392Z,12.13
2023-03-24T02:08:30.094Z,12.14
2023-03-24T02:11:00.431Z,12.15
2023-03-24T02:13:34.926Z,12.16
2023-03-24T02:16:22.171Z,12.13
2023-03-24T02:19:03.636Z,12.10
2023-03-24T02:21:54.364Z,12.05
2023-03-24T02:24:50.673Z,12.03
2023-03-24T02:27:27.987Z,12.02
2023-03-24T02:30:35.198Z,12.02
2023-03-24T02:33:27.817Z,12.03
2023-03-24T02:51:43.173Z,12.00
2023-03-24T02:56:13.620Z,12.01
2023-03-24T02:59:52.774Z,12.01
2023-03-24T03:03:48.765Z,12.06
2023-03-24T03:31:28.257Z,11.92
2023-03-24T03:34:19.159Z,11.90
2023-03-24T03:37:01.868Z,11.88
2023-03-24T03:39:40.450Z,11.87
2023-03-24T03:42:11.100Z,11.85
2023-03-24T03:44:40.111Z,11.83
2023-03-24T03:47:10.673Z,11.80
2023-03-24T03:49:44.070Z,11.78
2023-03-24T03:52:12.931Z,11.78
2023-03-24T03:54:43.610Z,11.77
2023-03-24T03:57:13.566Z,11.77
2023-03-24T04:00:15.844Z,11.76
2023-03-24T04:03:15.015Z,11.73
2023-03-24T04:06:05.387Z,11.71
2023-03-24T04:08:45.951Z,11.70
2023-03-24T04:11:44.267Z,11.70
2023-03-24T04:15:01.392Z,11.69
2023-03-24T04:18:08.721Z,11.67
2023-03-24T04:21:02.321Z,11.65
2023-03-24T04:23:40.179Z,11.63
2023-03-24T04:26:28.603Z,11.62
2023-03-24T04:29:21.077Z,11.59
2023-03-24T04:32:21.832Z,11.56
2023-03-24T04:34:55.558Z,11.54
2023-03-24T04:37:39.097Z,11.52
2023-03-24T04:40:18.507Z,11.53
2023-03-24T04:43:31.126Z,11.50
2023-03-24T04:46:51.109Z,11.52
2023-03-24T04:50:19.748Z,11.50
2023-03-24T05:20:53.788Z,11.66
2023-03-24T05:23:22.891Z,11.69
2023-03-24T05:25:51.700Z,11.71
2023-03-24T05:28:25.136Z,11.75
2023-03-24T05:30:54.640Z,11.78
2023-03-24T05:33:35.446Z,11.80
2023-03-24T05:36:04.275Z,11.84
2023-03-24T05:38:35.073Z,11.86
2023-03-24T05:41:03.463Z,11.88
2023-03-24T05:43:36.040Z,11.91
2023-03-24T05:46:17.818Z,11.94
2023-03-24T05:48:47.050Z,11.94
2023-03-24T05:51:22.480Z,11.95
2023-03-24T05:53:59.057Z,11.98
2023-03-24T05:56:40.198Z,11.98
2023-03-24T05:59:23.756Z,12.02
2023-03-24T06:01:58.877Z,12.04
2023-03-24T06:04:33.566Z,12.07
2023-03-24T06:07:11.658Z,12.09
2023-03-24T06:09:42.649Z,12.11
2023-03-24T06:12:14.453Z,12.10
2023-03-24T06:14:57.943Z,12.11
2023-03-24T06:17:29.653Z,12.13
2023-03-24T06:20:02.950Z,12.15
2023-03-24T06:22:51.322Z,12.18
2023-03-24T06:25:37.924Z,12.18
2023-03-24T06:28:30.534Z,12.18
2023-03-24T06:31:22.016Z,12.18
2023-03-24T06:33:55.040Z,12.21
2023-03-24T06:36:25.841Z,12.22
2023-03-24T06:38:56.363Z,12.24
2023-03-24T06:41:27.468Z,12.26
2023-03-24T06:44:02.004Z,12.26
2023-03-24T06:46:30.456Z,12.27
2023-03-24T06:49:04.751Z,12.29
2023-03-24T06:51:33.041Z,12.30
2023-03-24T06:54:03.643Z,12.34
2023-03-24T06:56:32.457Z,12.37
2023-03-24T06:59:23.974Z,12.42
2023-03-24T07:01:52.610Z,12.44
2023-03-24T07:04:27.952Z,12.45
2023-03-24T07:07:12.550Z,12.48
2023-03-24T07:09:54.063Z,12.53
2023-03-24T07:12:24.317Z,12.56
2023-03-24T07:14:53.017Z,12.61
2023-03-24T07:17:22.733Z,12.66
2023-03-24T07:20:11.502Z,12.69
2023-03-24T07:22:46.660Z,12.73
2023-03-24T07:25:32.729Z,12.80
2023-03-24T07:28:25.397Z,12.83
2023-03-24T07:30:56.855Z,12.86
2023-03-24T07:33:26.649Z,12.90
2023-03-24T07:35:56.337Z,12.92
2023-03-24T07:38:26.201Z,13.00
2023-03-24T07:40:59.423Z,13.06
2023-03-24T07:43:28.296Z,13.16
2023-03-24T07:46:15.679Z,13.37
2023-03-24T07:48:44.178Z,13.50
2023-03-24T07:51:12.727Z,13.58
2023-03-24T07:53:59.839Z,13.61
2023-03-24T07:57:20.775Z,13.65
2023-03-24T07:59:51.672Z,13.77
2023-03-24T08:02:39.724Z,13.97
2023-03-24T08:05:34.808Z,14.18
2023-03-24T08:08:33.491Z,14.34
2023-03-24T08:11:03.811Z,14.47
2023-03-24T08:23:38.176Z,14.98
2023-03-24T08:36:31.541Z,15.59
2023-03-24T09:01:19.763Z,15.52
2023-03-24T09:03:52.271Z,15.49
2023-03-24T09:56:12.196Z,15.36
2023-03-24T09:59:00.336Z,15.35
2023-03-24T10:01:29.805Z,15.35
2023-03-24T10:04:00.687Z,15.35
2023-03-24T10:33:05.882Z,15.26
2023-03-24T10:35:56.831Z,15.29
2023-03-24T10:38:27.396Z,15.43
2023-03-24T10:41:01.198Z,15.47
2023-03-24T10:43:33.437Z,15.44
2023-03-24T10:49:52.766Z,15.40
2023-03-24T11:09:24.664Z,15.51
2023-03-24T11:11:58.446Z,15.54
2023-03-24T11:14:28.014Z,15.56
2023-03-24T11:21:02.297Z,15.71
2023-03-24T11:30:53.238Z,16.03
2023-03-24T11:33:35.719Z,16.34
2023-03-24T11:36:30.896Z,16.61
2023-03-24T11:39:01.396Z,16.89
2023-03-24T11:41:29.896Z,17.08
2023-03-24T11:44:19.598Z,17.20
2023-03-24T11:47:03.275Z,17.28
2023-03-24T11:49:37.977Z,17.33
2023-03-24T11:52:12.208Z,17.40
2023-03-24T11:54:44.035Z,17.48
2023-03-24T11:57:15.313Z,17.50
2023-03-24T12:00:00.282Z,17.59
2023-03-24T12:02:59.661Z,17.68
2023-03-24T12:05:39.780Z,17.80
2023-03-24T12:08:26.418Z,17.87
2023-03-24T12:11:37.874Z,17.91
2023-03-24T12:14:09.255Z,17.95
2023-03-24T12:16:51.891Z,18.01
2023-03-24T12:19:39.078Z,18.04
2023-03-24T12:22:38.579Z,18.01
2023-03-24T12:25:28.679Z,18.02
2023-03-24T12:28:08.703Z,18.04
2023-03-24T12:30:56.826Z,18.05
2023-03-24T12:33:41.040Z,17.99
2023-03-24T12:36:41.621Z,17.99
2023-03-24T12:39:21.385Z,18.03
2023-03-24T12:42:09.006Z,17.97
2023-03-24T12:45:07.997Z,17.99
2023-03-24T12:47:47.905Z,18.01
2023-03-24T12:50:18.663Z,18.03
2023-03-24T12:53:07.737Z,18.05
2023-03-24T12:55:52.086Z,18.10
2023-03-24T12:58:46.579Z,18.09
2023-03-24T13:01:38.945Z,18.10
2023-03-24T13:04:06.649Z,18.09
2023-03-24T13:06:45.521Z,18.05
2023-03-24T14:08:52.699Z,17.87
2023-03-24T14:11:34.647Z,17.85
2023-03-24T14:14:06.052Z,17.84
2023-03-24T14:16:32.528Z,17.82
2023-03-24T14:19:18.985Z,17.79
2023-03-24T14:21:58.509Z,17.77
2023-03-24T14:24:30.143Z,17.75
2023-03-24T14:26:59.508Z,17.72
2023-03-24T14:29:49.147Z,17.72
2023-03-24T14:32:22.142Z,17.70
2023-03-24T14:34:59.460Z,17.70
2023-03-24T14:37:27.472Z,17.70
2023-03-24T14:39:58.563Z,17.72
2023-03-24T14:42:47.932Z,17.72
2023-03-24T14:45:40.216Z,17.77
2023-03-24T14:48:38.381Z,17.81
2023-03-24T14:51:35.927Z,17.76
2023-03-24T14:54:05.605Z,17.75
2023-03-24T14:56:39.871Z,17.70
2023-03-24T14:59:24.911Z,17.67
2023-03-24T15:01:58.222Z,17.64
2023-03-24T15:04:32.985Z,17.61
2023-03-24T15:07:05.856Z,17.59
2023-03-24T15:09:37.778Z,17.56
2023-03-24T15:12:04.864Z,17.59
2023-03-24T15:14:37.664Z,17.60
2023-03-24T15:17:15.741Z,17.65
2023-03-24T15:19:42.388Z,17.68
2023-03-24T15:22:14.693Z,17.70
2023-03-24T15:24:49.190Z,17.64
2023-03-24T15:27:23.418Z,17.55
2023-03-24T15:30:01.465Z,17.48
2023-03-24T15:32:39.344Z,17.44
2023-03-24T15:35:08.181Z,17.38
2023-03-24T15:37:40.828Z,17.36
2023-03-24T15:40:26.622Z,17.29
2023-03-24T15:42:55.987Z,17.24
2023-03-24T15:45:34.874Z,17.21
2023-03-24T15:48:12.766Z,17.19
2023-03-24T15:50:53.542Z,17.15
2023-03-24T15:53:24.808Z,17.10
2023-03-24T16:28:36.392Z,15.62
2023-03-24T16:31:12.871Z,15.54
2023-03-24T16:33:57.907Z,15.48
2023-03-24T16:36:25.970Z,15.53
2023-03-24T16:38:58.477Z,15.81
2023-03-24T16:41:25.769Z,15.69
2023-03-24T16:44:01.048Z,15.68
2023-03-24T16:46:28.108Z,15.60
2023-03-24T16:48:55.953Z,15.57
2023-03-24T16:51:28.035Z,15.54
2023-03-24T16:53:55.663Z,15.50
2023-03-24T16:56:25.899Z,15.43
2023-03-24T16:58:55.804Z,15.38
2023-03-24T17:01:33.070Z,15.33
2023-03-24T17:04:08.896Z,15.28
2023-03-24T17:06:41.505Z,15.23
2023-03-24T17:09:14.056Z,15.18
2023-03-24T17:11:48.197Z,15.14
2023-03-24T17:14:15.167Z,15.12
2023-03-24T17:16:44.432Z,15.10
2023-03-24T17:19:14.377Z,15.10
2023-03-24T17:21:48.660Z,15.10
2023-03-24T17:24:16.185Z,15.08
2023-03-24T17:26:42.949Z,15.07
2023-03-24T17:29:11.580Z,15.05
2023-03-24T17:31:39.444Z,15.04
2023-03-24T17:36:49.675Z,15.01
2023-03-24T17:39:19.917Z,14.98
2023-03-24T17:41:46.513Z,14.97
2023-03-24T17:44:13.097Z,14.96
2023-03-24T17:46:40.270Z,14.96
2023-03-24T17:49:06.892Z,14.95
2023-03-24T17:51:35.939Z,14.94
2023-03-24T17:54:05.740Z,14.93
2023-03-24T17:56:32.968Z,14.91
2023-03-24T17:58:59.731Z,14.90
2023-03-24T18:01:28.984Z,14.89
2023-03-24T18:03:56.234Z,14.89
2023-03-24T18:06:23.007Z,14.90
2023-03-24T18:08:53.431Z,14.91
2023-03-24T18:11:20.803Z,14.90
2023-03-24T18:13:47.917Z,14.89
2023-03-24T18:16:21.375Z,14.89
2023-03-24T18:18:50.436Z,14.88
2023-03-24T18:21:18.528Z,14.86
2023-03-24T18:23:45.890Z,14.85
2023-03-24T18:26:16.624Z,14.85
2023-03-24T18:28:45.587Z,14.83
2023-03-24T18:31:15.963Z,14.81
2023-03-24T18:33:46.250Z,14.81
2023-03-24T18:36:25.814Z,14.79
2023-03-24T18:39:04.953Z,14.77
2023-03-24T18:41:37.414Z,14.74
2023-03-24T18:44:07.084Z,14.72
2023-03-24T18:46:34.429Z,14.68
2023-03-24T18:49:02.916Z,14.66
2023-03-24T18:51:30.609Z,14.66
2023-03-24T18:53:58.204Z,14.66
2023-03-24T18:56:25.421Z,14.66
2023-03-24T18:58:55.105Z,14.66
2023-03-24T19:01:25.811Z,14.67
2023-03-24T19:03:53.647Z,14.68
2023-03-24T19:06:21.524Z,14.67
2023-03-24T19:08:52.474Z,14.66
2023-03-24T19:11:20.910Z,14.65
2023-03-24T19:13:49.977Z,14.66
2023-03-24T19:16:18.695Z,14.64
2023-03-24T19:18:50.583Z,14.65
2023-03-24T19:21:23.715Z,14.62
2023-03-24T19:23:52.994Z,14.62
2023-03-24T19:26:20.696Z,14.60
2023-03-24T19:28:47.823Z,14.60
2023-03-24T19:31:18.179Z,14.59
2023-03-24T19:33:46.988Z,14.58
2023-03-24T20:17:21.600Z,13.50
2023-03-24T20:19:52.301Z,13.45
2023-03-24T20:22:21.381Z,13.38
2023-03-24T20:24:50.816Z,13.33
2023-03-24T20:27:20.092Z,13.35
2023-03-24T20:29:49.087Z,13.31
2023-03-24T20:32:20.660Z,13.32
2023-03-24T20:34:47.217Z,13.30
2023-03-24T20:37:18.012Z,13.32
2023-03-24T20:39:47.835Z,13.30
2023-03-24T20:42:18.104Z,13.28
2023-03-24T20:44:47.323Z,13.25
2023-03-24T20:47:18.825Z,13.23
2023-03-24T20:49:48.110Z,13.21
2023-03-24T20:52:14.779Z,13.16
2023-03-24T20:54:41.279Z,13.10
2023-03-24T20:57:12.625Z,13.07
2023-03-24T20:59:41.718Z,13.02
2023-03-24T21:02:10.202Z,12.98
2023-03-24T21:04:39.456Z,12.96
2023-03-24T21:07:08.681Z,12.95
2023-03-24T21:09:37.571Z,12.94
2023-03-24T21:12:09.248Z,12.96
2023-03-24T21:14:40.741Z,12.97
2023-03-24T21:17:09.844Z,12.97
2023-03-24T21:19:45.943Z,12.94
2023-03-24T21:22:14.501Z,12.92
2023-03-24T21:24:43.770Z,12.90
2023-03-24T21:27:12.936Z,12.87
2023-03-24T21:29:39.420Z,12.88
2023-03-24T21:32:09.443Z,12.88
2023-03-24T21:34:35.886Z,12.85
2023-03-24T21:37:03.238Z,12.85
2023-03-24T21:39:35.468Z,12.82
2023-03-24T21:42:06.094Z,12.79
2023-03-24T21:44:35.489Z,12.77
2023-03-24T21:47:07.572Z,12.75
2023-03-24T21:49:36.189Z,12.71
2023-03-24T21:52:03.710Z,12.67
2023-03-24T21:54:32.654Z,12.65
2023-03-24T21:57:03.344Z,12.60
2023-03-24T21:59:32.301Z,12.56
2023-03-24T22:01:58.944Z,12.54
2023-03-24T22:04:28.213Z,12.52
2023-03-24T22:06:55.573Z,12.48
2023-03-24T22:09:26.748Z,12.45
2023-03-24T22:11:56.839Z,12.41
2023-03-24T22:14:27.148Z,12.37
2023-03-24T22:16:53.731Z,12.34
2023-03-24T22:19:24.089Z,12.31
2023-03-24T22:21:56.521Z,12.27
2023-03-24T22:24:25.665Z,12.25
2023-03-24T22:26:57.905Z,12.21
2023-03-24T22:29:25.866Z,12.18
2023-03-24T22:31:54.842Z,12.15
2023-03-24T22:34:24.453Z,12.11
2023-03-24T22:36:53.733Z,12.07
2023-03-24T22:39:23.802Z,12.03
2023-03-24T22:41:50.677Z,12.01
2023-03-24T22:44:18.977Z,12.00
2023-03-24T22:46:50.509Z,12.00
2023-03-24T22:49:21.916Z,12.00
2023-03-24T22:51:51.409Z,11.99
2023-03-24T22:54:20.502Z,11.97
2023-03-24T22:56:50.793Z,11.94
2023-03-24T22:59:20.406Z,11.92
2023-03-24T23:01:56.090Z,11.92
2023-03-24T23:04:33.148Z,11.91
2023-03-24T23:07:04.525Z,11.91
2023-03-24T23:09:31.293Z,11.91
2023-03-24T23:11:58.305Z,11.90
2023-03-24T23:14:27.472Z,11.90
2023-03-24T23:16:56.413Z,11.89
2023-03-24T23:19:23.363Z,11.86
2023-03-24T23:21:50.060Z,11.82
2023-03-24T23:24:18.983Z,11.78
2023-03-24T23:26:47.982Z,11.76
2023-03-24T23:29:17.368Z,11.74
2023-03-24T23:31:44.063Z,11.74
2023-03-24T23:34:11.042Z,11.73
2023-03-24T23:36:39.136Z,11.72
2023-03-24T23:39:08.200Z,11.73
2023-03-24T23:41:34.645Z,11.73
2023-03-24T23:44:01.470Z,11.73
2023-03-24T23:46:33.035Z,11.71
2023-03-24T23:49:02.247Z,11.70
2023-03-24T23:51:31.629Z,11.69
2023-03-24T23:54:00.664Z,11.66
2023-03-24T23:56:36.378Z,11.63
2023-03-24T23:59:09.287Z,11.61
